首页
METAR-TAF:

METAR-TAF

机场 :

Dansville Municipal Airport

Dansville, 紐約州, 美国

纬度: 42-34-10N, 经度: 077-42-52W, 海拔: 201米

当前天气观测

该预报发布于23分钟前的07:54 UTC
风速12节,风向东南
温度 0°C
湿度 43%
气压 1026 hPa
能見度: 16.1公里
天空无云

METAR: KDSV 130754Z AUTO 13012KT 10SM CLR 00/M11 A3029 RMK AO2 SLP273 T00001106

时间: 03:17 (08:17 UTC)


TAF: 丢失

超过4000个机场的气象观测和天气预报(METAR&TAF报告)。

可查询的气象台以黄色和红色小点在地图上表示。

将鼠标移到小点上方,可查看气象台名称。

然后点击查看天气观测和预报。

如需切换地图:点击带黑十字的绿色按钮放大地图;点击带横线的绿色按钮缩小地图;或者点击绿色箭头查看邻近地区的地图。


METAR-TAF: